createdAt,value
2019-01-23T00:01:06.729Z,26.97
2019-01-23T00:03:35.703Z,26.87
2019-01-23T00:06:05.081Z,27.07
2019-01-23T00:08:34.067Z,27.93
2019-01-23T00:11:02.990Z,27.70
2019-01-23T00:13:31.925Z,27.33
2019-01-23T00:16:00.987Z,28.27
2019-01-23T00:18:29.899Z,27.77
2019-01-23T00:20:58.924Z,29.30
2019-01-23T00:23:28.042Z,28.03
2019-01-23T00:25:57.043Z,26.93
2019-01-23T00:28:26.075Z,29.00
2019-01-23T00:30:55.032Z,28.17
2019-01-23T00:33:24.031Z,27.30
2019-01-23T00:35:53.029Z,29.10
2019-01-23T00:38:22.047Z,26.77
2019-01-23T00:40:51.122Z,30.23
2019-01-23T00:43:20.063Z,29.03
2019-01-23T00:45:48.983Z,27.93
2019-01-23T00:48:17.910Z,29.93
2019-01-23T00:50:46.922Z,30.20
2019-01-23T00:53:15.937Z,31.13
2019-01-23T00:55:44.959Z,30.17
2019-01-23T00:58:13.838Z,29.97
2019-01-23T01:00:42.819Z,30.40
2019-01-23T01:03:11.961Z,30.23
2019-01-23T01:05:40.971Z,31.33
2019-01-23T01:08:10.006Z,30.57
2019-01-23T01:10:38.963Z,29.23
2019-01-23T01:13:10.758Z,31.53
2019-01-23T01:15:39.720Z,31.43
2019-01-23T01:18:08.666Z,30.30
2019-01-23T01:20:37.550Z,32.30
2019-01-23T01:23:06.439Z,28.83
2019-01-23T01:25:35.359Z,33.03
2019-01-23T01:28:04.322Z,33.60
2019-01-23T01:30:33.222Z,32.90
2019-01-23T01:33:02.076Z,33.17
2019-01-23T01:35:31.020Z,32.47
2019-01-23T01:38:00.005Z,33.50
2019-01-23T01:40:28.969Z,33.33
2019-01-23T01:42:58.003Z,33.90
2019-01-23T01:45:26.951Z,33.13
2019-01-23T01:47:55.930Z,32.97
2019-01-23T01:50:24.913Z,31.90
2019-01-23T01:52:53.906Z,33.50
2019-01-23T01:55:22.924Z,33.37
2019-01-23T01:57:54.720Z,32.40
2019-01-23T02:00:24.828Z,32.70
2019-01-23T02:02:53.672Z,31.73
2019-01-23T02:05:22.673Z,33.63
2019-01-23T02:07:54.111Z,33.33
2019-01-23T02:10:22.703Z,32.80
2019-01-23T02:12:51.646Z,32.53
2019-01-23T02:15:20.877Z,34.57
2019-01-23T02:17:49.863Z,34.03
2019-01-23T02:20:21.650Z,35.10
2019-01-23T02:22:50.587Z,33.53
2019-01-23T02:25:19.646Z,34.47
2019-01-23T02:27:49.106Z,33.63
2019-01-23T02:30:20.157Z,35.50
2019-01-23T02:32:49.134Z,35.27
2019-01-23T02:35:18.147Z,34.30
2019-01-23T02:37:47.068Z,34.10
2019-01-23T02:40:18.148Z,33.40
2019-01-23T02:42:47.292Z,35.10
2019-01-23T02:45:16.572Z,34.10
2019-01-23T02:47:45.570Z,36.23
2019-01-23T02:50:15.517Z,34.77
2019-01-23T02:52:44.376Z,35.83
2019-01-23T02:55:13.573Z,35.53
2019-01-23T02:57:42.486Z,35.13
2019-01-23T03:00:16.189Z,33.43
2019-01-23T03:02:45.380Z,35.03
2019-01-23T03:05:16.327Z,33.17
2019-01-23T03:07:45.242Z,34.80
2019-01-23T03:10:16.336Z,36.53
2019-01-23T03:12:45.327Z,36.83
2019-01-23T03:15:15.185Z,33.50
2019-01-23T03:17:44.062Z,36.17
2019-01-23T03:20:15.521Z,32.27
2019-01-23T03:22:44.394Z,38.47
2019-01-23T03:25:14.214Z,29.60
2019-01-23T03:27:43.115Z,37.20
2019-01-23T03:30:17.448Z,31.17
2019-01-23T03:32:46.379Z,37.77
2019-01-23T03:35:15.559Z,35.67
2019-01-23T03:37:44.800Z,37.97
2019-01-23T03:40:16.219Z,35.77
2019-01-23T03:42:45.178Z,37.83
2019-01-23T03:45:15.091Z,30.77
2019-01-23T03:47:44.072Z,35.30
2019-01-23T03:50:15.155Z,38.87
2019-01-23T03:52:44.232Z,38.13
2019-01-23T03:55:13.453Z,39.27
2019-01-23T03:57:42.325Z,39.27
2019-01-23T04:00:13.571Z,37.67
2019-01-23T04:02:42.742Z,39.07
2019-01-23T04:05:11.810Z,39.53
2019-01-23T04:07:40.871Z,38.73
2019-01-23T04:10:11.990Z,37.53
2019-01-23T04:12:40.981Z,38.43
2019-01-23T04:15:10.938Z,37.57
2019-01-23T04:17:39.784Z,39.97
2019-01-23T04:20:12.134Z,40.13
2019-01-23T04:22:41.117Z,40.90
2019-01-23T04:25:10.071Z,39.13
2019-01-23T04:27:39.055Z,38.40
2019-01-23T04:30:10.283Z,41.00
2019-01-23T04:32:39.196Z,39.93
2019-01-23T04:35:08.286Z,41.13
2019-01-23T04:37:37.230Z,40.50
2019-01-23T04:40:07.404Z,40.03
2019-01-23T04:42:36.345Z,40.87
2019-01-23T04:45:07.493Z,40.57
2019-01-23T04:47:36.443Z,41.83
2019-01-23T04:50:06.655Z,40.57
2019-01-23T04:52:49.602Z,39.40
2019-01-23T04:55:18.523Z,39.70
2019-01-23T04:57:47.481Z,41.30
2019-01-23T05:00:19.216Z,42.30
2019-01-23T05:02:48.114Z,41.43
2019-01-23T05:05:17.094Z,42.23
2019-01-23T05:07:45.966Z,40.27
2019-01-23T05:10:14.855Z,41.60
2019-01-23T05:12:43.794Z,41.93
2019-01-23T05:15:12.878Z,41.57
2019-01-23T05:17:41.792Z,40.73
2019-01-23T05:20:11.456Z,37.03
2019-01-23T05:22:40.348Z,41.10
2019-01-23T05:25:09.656Z,40.83
2019-01-23T05:27:38.984Z,41.30
2019-01-23T05:30:12.120Z,42.77
2019-01-23T05:32:41.062Z,41.90
2019-01-23T05:35:11.506Z,40.03
2019-01-23T05:37:40.478Z,40.57
2019-01-23T05:40:09.647Z,34.73
2019-01-23T05:42:38.536Z,39.37
2019-01-23T05:45:07.562Z,40.57
2019-01-23T05:47:36.427Z,40.60
2019-01-23T05:50:07.281Z,40.90
2019-01-23T05:52:36.167Z,40.00
2019-01-23T05:55:05.966Z,40.37
2019-01-23T05:57:34.786Z,41.17
2019-01-23T06:00:04.588Z,38.63
2019-01-23T06:02:33.536Z,41.63
2019-01-23T06:05:02.548Z,39.87
2019-01-23T06:07:31.449Z,39.93
2019-01-23T06:10:00.442Z,38.53
2019-01-23T06:12:29.251Z,40.63
2019-01-23T06:15:00.322Z,41.53
2019-01-23T06:17:29.222Z,38.77
2019-01-23T06:19:58.158Z,40.37
2019-01-23T06:22:26.970Z,37.93
2019-01-23T06:24:55.860Z,40.60
2019-01-23T06:27:24.831Z,39.23
2019-01-23T06:29:53.827Z,37.00
2019-01-23T06:32:22.729Z,40.63
2019-01-23T06:34:51.670Z,38.60
2019-01-23T06:37:20.642Z,40.87
2019-01-23T06:39:49.548Z,39.77
2019-01-23T06:42:18.540Z,37.47
2019-01-23T06:44:47.454Z,38.87
2019-01-23T06:47:16.392Z,42.07
2019-01-23T06:49:45.381Z,38.77
2019-01-23T06:52:14.391Z,37.70
2019-01-23T06:54:43.330Z,32.97
2019-01-23T06:57:12.222Z,38.00
2019-01-23T06:59:41.134Z,38.23
2019-01-23T07:02:10.546Z,39.67
2019-01-23T07:04:39.460Z,37.60
2019-01-23T07:07:08.452Z,38.90
2019-01-23T07:09:37.377Z,39.27
2019-01-23T07:12:06.404Z,39.20
2019-01-23T07:14:35.380Z,36.13
2019-01-23T07:17:04.372Z,38.43
2019-01-23T07:19:33.261Z,39.93
2019-01-23T07:22:02.193Z,38.53
2019-01-23T07:24:31.089Z,38.50
2019-01-23T07:27:00.071Z,38.53
2019-01-23T07:29:29.091Z,37.87
2019-01-23T07:31:58.075Z,34.63
2019-01-23T07:34:26.965Z,37.77
2019-01-23T07:36:55.843Z,36.47
2019-01-23T07:39:24.794Z,37.53
2019-01-23T07:41:53.726Z,36.90
2019-01-23T07:44:22.679Z,34.10
2019-01-23T07:46:51.520Z,37.00
2019-01-23T07:49:20.400Z,36.10
2019-01-23T07:51:49.321Z,37.87
2019-01-23T07:54:18.248Z,37.80
2019-01-23T07:56:47.149Z,37.00
2019-01-23T07:59:16.161Z,37.57
2019-01-23T08:01:45.148Z,35.47
2019-01-23T08:04:14.030Z,37.30
2019-01-23T08:06:42.943Z,35.93
2019-01-23T08:09:11.861Z,34.40
2019-01-23T08:11:40.800Z,38.30
2019-01-23T08:14:09.891Z,36.97
2019-01-23T08:16:38.900Z,36.33
2019-01-23T08:19:07.944Z,37.80
2019-01-23T08:21:36.871Z,35.77
2019-01-23T08:24:05.795Z,36.40
2019-01-23T08:26:34.742Z,36.53
2019-01-23T08:29:03.737Z,38.03
2019-01-23T08:31:32.782Z,37.47
2019-01-23T08:34:01.785Z,36.37
2019-01-23T08:36:30.676Z,36.00
2019-01-23T08:38:59.607Z,36.13
2019-01-23T08:41:28.506Z,36.30
2019-01-23T08:43:57.521Z,36.27
2019-01-23T08:46:26.562Z,36.90
2019-01-23T08:48:55.531Z,37.23
2019-01-23T08:51:24.570Z,36.73
2019-01-23T08:53:53.466Z,36.43
2019-01-23T08:56:22.384Z,35.70
2019-01-23T08:58:51.212Z,32.27
2019-01-23T09:01:20.177Z,35.00
2019-01-23T09:03:49.127Z,34.53
2019-01-23T09:06:18.016Z,35.53
2019-01-23T09:08:47.047Z,35.10
2019-01-23T09:11:15.921Z,35.40
2019-01-23T09:13:44.818Z,36.60
2019-01-23T09:16:13.851Z,35.17
2019-01-23T09:18:42.859Z,36.00
2019-01-23T09:21:33.006Z,32.53
2019-01-23T09:24:02.056Z,33.43
2019-01-23T09:26:31.099Z,35.73
2019-01-23T09:29:00.226Z,36.27
2019-01-23T09:31:57.736Z,36.70
2019-01-23T09:34:47.074Z,35.00
2019-01-23T09:37:34.705Z,35.23
2019-01-23T09:40:30.817Z,37.63
2019-01-23T09:44:05.335Z,37.43
2019-01-23T09:46:56.839Z,34.80
2019-01-23T09:50:11.979Z,36.20
2019-01-23T09:53:14.150Z,36.83
2019-01-23T09:55:43.269Z,33.37
2019-01-23T09:58:12.695Z,31.43
2019-01-23T10:00:41.839Z,35.77
2019-01-23T10:03:10.784Z,39.30
2019-01-23T10:05:39.770Z,35.70
2019-01-23T10:08:08.786Z,38.77
2019-01-23T10:10:37.808Z,38.10
2019-01-23T10:13:06.761Z,32.60
2019-01-23T10:15:45.249Z,34.97
2019-01-23T10:18:14.265Z,37.10
2019-01-23T10:20:43.278Z,40.30
2019-01-23T10:23:12.276Z,39.17
2019-01-23T10:25:41.278Z,39.50
2019-01-23T10:28:10.182Z,39.10
2019-01-23T10:30:39.163Z,39.27
2019-01-23T10:33:08.103Z,39.33
2019-01-23T10:35:37.184Z,38.10
2019-01-23T10:38:06.145Z,36.00
2019-01-23T10:40:35.037Z,36.17
2019-01-23T10:43:04.106Z,31.00
2019-01-23T10:45:33.087Z,37.20
2019-01-23T10:48:02.111Z,40.00
2019-01-23T10:50:31.068Z,37.20
2019-01-23T10:53:00.077Z,41.63
2019-01-23T10:55:29.049Z,38.07
2019-01-23T10:57:58.042Z,37.20
2019-01-23T11:00:27.002Z,37.47
2019-01-23T11:02:55.969Z,38.47
2019-01-23T11:05:25.149Z,39.03
2019-01-23T11:07:54.137Z,36.57
2019-01-23T11:10:24.008Z,36.37
2019-01-23T11:12:52.989Z,36.47
2019-01-23T11:15:21.935Z,38.67
2019-01-23T11:17:50.956Z,38.90
2019-01-23T11:20:20.326Z,38.87
2019-01-23T11:22:49.318Z,39.27
2019-01-23T11:25:18.491Z,40.87
2019-01-23T11:27:47.703Z,37.70
2019-01-23T11:30:19.341Z,39.13
2019-01-23T11:32:48.310Z,40.40
2019-01-23T11:38:45.460Z,38.03
2019-01-23T11:41:14.551Z,37.70
2019-01-23T11:43:43.459Z,37.07
2019-01-23T11:46:15.504Z,38.60
2019-01-23T11:48:44.478Z,37.97
2019-01-23T11:51:13.485Z,39.57
2019-01-23T11:53:42.435Z,37.93
2019-01-23T11:56:11.406Z,38.30
2019-01-23T11:58:40.405Z,40.63
2019-01-23T12:04:50.557Z,34.73
2019-01-23T12:07:19.577Z,38.87
2019-01-23T12:09:48.487Z,38.03
2019-01-23T12:12:17.476Z,39.77
2019-01-23T12:14:46.453Z,40.57
2019-01-23T12:17:15.413Z,38.97
2019-01-23T12:19:44.313Z,39.17
2019-01-23T12:22:13.338Z,38.80
2019-01-23T12:24:42.404Z,41.03
2019-01-23T12:27:11.506Z,41.23
2019-01-23T12:29:40.395Z,40.50
2019-01-23T12:32:15.674Z,37.57
2019-01-23T12:34:44.623Z,36.37
2019-01-23T12:37:13.617Z,34.60
2019-01-23T12:39:42.530Z,37.97
2019-01-23T12:42:11.518Z,37.40
2019-01-23T12:44:40.555Z,39.43
2019-01-23T12:47:09.467Z,37.03
2019-01-23T12:49:38.494Z,37.53
2019-01-23T12:52:07.479Z,38.03
2019-01-23T12:54:36.473Z,37.77
2019-01-23T12:57:05.486Z,36.77
2019-01-23T12:59:34.379Z,38.37
2019-01-23T13:02:09.570Z,36.03
2019-01-23T13:04:34.228Z,36.77
2019-01-23T13:07:03.216Z,37.93
2019-01-23T13:09:32.150Z,37.37
2019-01-23T13:12:01.202Z,36.73
2019-01-23T13:14:30.101Z,35.67
2019-01-23T13:16:59.056Z,36.93
2019-01-23T13:19:28.052Z,38.70
2019-01-23T13:21:57.081Z,36.60
2019-01-23T13:24:25.922Z,38.03
2019-01-23T13:26:54.901Z,37.53
2019-01-23T13:29:23.949Z,37.47
2019-01-23T13:31:52.843Z,38.70
2019-01-23T13:34:21.806Z,38.03
2019-01-23T13:36:50.830Z,35.70
2019-01-23T13:39:20.278Z,36.23
2019-01-23T13:41:49.294Z,35.43
2019-01-23T13:44:18.273Z,35.30
2019-01-23T13:46:47.197Z,36.17
2019-01-23T13:49:16.122Z,40.57
2019-01-23T13:51:45.097Z,39.23
2019-01-23T13:54:14.077Z,37.87
2019-01-23T13:56:42.930Z,35.40
2019-01-23T13:59:11.940Z,34.77
2019-01-23T14:01:40.921Z,36.53
2019-01-23T14:04:10.009Z,37.83
2019-01-23T14:06:39.018Z,37.93
2019-01-23T14:09:08.352Z,38.17
2019-01-23T14:11:37.375Z,34.03
2019-01-23T14:14:06.624Z,35.83
2019-01-23T14:16:35.660Z,35.67
2019-01-23T14:19:04.690Z,35.17
2019-01-23T14:21:52.087Z,34.13
2019-01-23T14:24:20.983Z,36.73
2019-01-23T14:26:49.914Z,35.10
2019-01-23T14:29:19.006Z,37.33
2019-01-23T14:31:48.157Z,35.07
2019-01-23T14:34:17.117Z,37.30
2019-01-23T14:36:46.089Z,37.03
2019-01-23T14:39:15.002Z,35.50
2019-01-23T14:41:43.989Z,37.43
2019-01-23T14:44:12.996Z,36.70
2019-01-23T14:46:41.976Z,35.90
2019-01-23T14:49:10.934Z,38.17
2019-01-23T14:51:39.980Z,35.47
2019-01-23T14:54:07.786Z,38.87
2019-01-23T14:56:36.670Z,38.00
2019-01-23T14:59:05.693Z,37.83
2019-01-23T15:01:34.574Z,38.20
2019-01-23T15:04:03.616Z,37.50
2019-01-23T15:06:32.596Z,37.97
2019-01-23T15:09:01.585Z,38.53
2019-01-23T15:11:30.481Z,37.43
2019-01-23T15:13:59.433Z,36.17
2019-01-23T15:16:28.378Z,36.30
2019-01-23T15:18:57.363Z,38.53
2019-01-23T15:21:26.303Z,37.43
2019-01-23T15:23:55.352Z,37.07
2019-01-23T15:26:24.346Z,40.70
2019-01-23T15:28:53.460Z,37.90
2019-01-23T15:31:22.360Z,37.80
2019-01-23T15:33:51.412Z,38.50
2019-01-23T15:36:20.392Z,37.43
2019-01-23T15:38:49.310Z,38.27
2019-01-23T15:41:18.411Z,38.73
2019-01-23T15:43:47.331Z,38.23
2019-01-23T15:46:16.328Z,37.03
2019-01-23T15:48:45.227Z,38.00
2019-01-23T15:51:14.130Z,37.77
2019-01-23T15:53:43.114Z,39.37
2019-01-23T15:56:12.069Z,39.10
2019-01-23T15:58:41.075Z,39.30
2019-01-23T16:01:10.090Z,39.27
2019-01-23T16:03:39.023Z,38.70
2019-01-23T16:06:08.016Z,38.03
2019-01-23T16:08:36.964Z,39.47
2019-01-23T16:11:05.964Z,39.67
2019-01-23T16:13:34.844Z,38.93
2019-01-23T16:16:03.854Z,39.03
2019-01-23T16:18:32.798Z,39.60
2019-01-23T16:21:01.740Z,39.23
2019-01-23T16:23:30.805Z,39.33
2019-01-23T16:26:02.451Z,39.00
2019-01-23T16:28:58.447Z,37.90
2019-01-23T16:31:27.466Z,39.20
2019-01-23T16:34:14.896Z,39.13
2019-01-23T16:36:43.890Z,38.80
2019-01-23T16:39:12.857Z,39.30
2019-01-23T16:41:41.894Z,40.37
2019-01-23T16:47:27.256Z,38.67
2019-01-23T16:50:44.926Z,39.83
2019-01-23T16:53:15.143Z,38.50
2019-01-23T16:55:44.134Z,39.17
2019-01-23T16:58:13.343Z,38.47
2019-01-23T17:00:42.455Z,37.93
2019-01-23T17:03:11.525Z,36.97
2019-01-23T17:05:40.586Z,38.77
2019-01-23T17:08:10.471Z,39.37
2019-01-23T17:10:39.414Z,40.03
2019-01-23T17:13:08.469Z,40.13
2019-01-23T17:15:37.382Z,39.93
2019-01-23T17:18:06.268Z,37.47
2019-01-23T17:20:37.826Z,38.10
2019-01-23T17:23:07.158Z,39.03
2019-01-23T17:25:36.182Z,40.53
2019-01-23T17:28:06.470Z,39.30
2019-01-23T17:30:35.400Z,40.47
2019-01-23T17:33:04.392Z,39.43
2019-01-23T17:35:33.390Z,41.13
2019-01-23T17:38:02.399Z,40.37
2019-01-23T17:40:34.120Z,41.03
2019-01-23T17:43:03.112Z,41.37
2019-01-23T17:45:34.628Z,42.57
2019-01-23T17:48:04.267Z,41.30
2019-01-23T17:50:33.394Z,41.17
2019-01-23T17:53:02.364Z,41.17
2019-01-23T17:55:33.320Z,43.37
2019-01-23T17:58:02.315Z,42.13
2019-01-23T18:00:34.682Z,42.10
2019-01-23T18:03:04.865Z,41.93
2019-01-23T18:05:34.029Z,42.77
2019-01-23T18:08:03.054Z,42.73
2019-01-23T18:10:31.996Z,43.23
2019-01-23T18:13:08.470Z,45.10
2019-01-23T18:15:37.833Z,42.67
2019-01-23T18:18:07.448Z,40.80
2019-01-23T18:20:36.411Z,42.37
2019-01-23T18:23:05.635Z,41.50
2019-01-23T18:25:36.244Z,41.97
2019-01-23T18:28:05.420Z,44.60
2019-01-23T18:30:41.124Z,42.67
2019-01-23T18:33:11.968Z,42.30
2019-01-23T18:36:09.665Z,43.90
2019-01-23T18:39:12.855Z,42.53
2019-01-23T18:42:25.453Z,42.53
2019-01-23T18:45:24.749Z,43.60
2019-01-23T18:48:22.160Z,44.23
2019-01-23T18:51:22.048Z,43.03
2019-01-23T18:54:21.427Z,43.87
2019-01-23T18:56:50.475Z,41.77
2019-01-23T19:00:19.348Z,43.27
2019-01-23T19:02:48.451Z,43.37
2019-01-23T19:05:18.343Z,44.33
2019-01-23T19:07:47.485Z,44.57
2019-01-23T19:10:16.923Z,46.40
2019-01-23T19:12:46.102Z,46.47
2019-01-23T19:15:18.236Z,45.47
2019-01-23T19:17:47.275Z,47.47
2019-01-23T19:20:18.744Z,48.00
2019-01-23T19:22:47.807Z,44.87
2019-01-23T19:25:16.970Z,46.00
2019-01-23T19:27:45.982Z,48.00
2019-01-23T19:30:17.887Z,47.17
2019-01-23T19:32:46.921Z,44.57
2019-01-23T19:36:19.423Z,47.37
2019-01-23T19:38:49.304Z,46.70
2019-01-23T19:41:20.520Z,46.40
2019-01-23T19:44:07.040Z,46.63
2019-01-23T19:46:35.979Z,49.23
2019-01-23T19:49:05.280Z,46.93
2019-01-23T19:51:34.328Z,47.70
2019-01-23T19:54:03.480Z,48.87
2019-01-23T19:56:32.554Z,49.63
2019-01-23T19:59:01.532Z,47.63
2019-01-23T20:01:30.576Z,47.60
2019-01-23T20:03:59.567Z,47.80
2019-01-23T20:06:28.673Z,49.67
2019-01-23T20:08:57.844Z,48.83
2019-01-23T20:11:29.732Z,50.63
2019-01-23T20:14:00.097Z,48.90
2019-01-23T20:16:29.115Z,47.47
2019-01-23T20:18:58.293Z,53.20
2019-01-23T20:21:27.397Z,50.67
2019-01-23T20:23:56.564Z,49.67
2019-01-23T20:26:25.554Z,50.83
2019-01-23T20:28:56.534Z,51.23
2019-01-23T20:31:25.531Z,50.00
2019-01-23T20:33:54.462Z,52.43
2019-01-23T20:36:23.540Z,54.17
2019-01-23T20:38:52.733Z,49.43
2019-01-23T20:41:21.743Z,54.60
2019-01-23T20:43:50.874Z,54.67
2019-01-23T20:46:20.003Z,55.20
2019-01-23T20:48:49.353Z,56.67
2019-01-23T20:51:19.374Z,56.67
2019-01-23T20:53:48.587Z,56.10
2019-01-23T20:56:18.013Z,58.80
2019-01-23T20:58:47.117Z,58.30
2019-01-23T21:01:17.350Z,59.33
2019-01-23T21:03:46.376Z,58.73
2019-01-23T21:06:15.430Z,57.73
2019-01-23T21:08:44.578Z,62.80
2019-01-23T21:11:13.692Z,60.90
2019-01-23T21:13:45.653Z,59.10
2019-01-23T21:16:14.699Z,59.00
2019-01-23T21:18:43.749Z,57.80
2019-01-23T21:21:12.819Z,62.10
2019-01-23T21:23:41.979Z,58.57
2019-01-23T21:26:11.134Z,59.47
2019-01-23T21:28:40.341Z,58.70
2019-01-23T21:31:09.867Z,57.63
2019-01-23T21:33:42.174Z,58.33
2019-01-23T21:36:09.746Z,58.73
2019-01-23T21:38:38.766Z,58.93
2019-01-23T21:41:07.828Z,56.17
2019-01-23T21:43:36.910Z,59.07
2019-01-23T21:46:23.935Z,60.57
2019-01-23T21:48:53.108Z,59.73
2019-01-23T21:51:22.225Z,59.90
2019-01-23T21:53:51.327Z,60.70
2019-01-23T21:56:29.847Z,63.27
2019-01-23T21:58:58.901Z,63.13
2019-01-23T22:01:27.922Z,64.00
2019-01-23T22:03:57.028Z,63.53
2019-01-23T22:06:26.016Z,60.83
2019-01-23T22:08:55.010Z,59.50
2019-01-23T22:15:32.578Z,49.23
2019-01-23T22:18:01.561Z,52.23
2019-01-23T22:20:30.619Z,61.23
2019-01-23T22:22:59.699Z,55.53
2019-01-23T22:25:28.584Z,63.27
2019-01-23T22:27:57.545Z,61.83
2019-01-23T22:30:28.517Z,60.47
2019-01-23T22:32:57.562Z,60.53
2019-01-23T22:35:26.478Z,58.47
2019-01-23T22:37:55.523Z,62.43
2019-01-23T22:40:25.246Z,58.27
2019-01-23T22:42:54.666Z,61.63
2019-01-23T22:45:24.072Z,61.77
2019-01-23T22:47:53.240Z,63.33
2019-01-23T22:50:25.415Z,61.80
2019-01-23T22:52:54.783Z,58.40
2019-01-23T22:55:24.191Z,59.13
2019-01-23T22:57:53.254Z,59.03
2019-01-23T23:00:58.576Z,60.00
2019-01-23T23:03:27.941Z,58.40
2019-01-23T23:05:57.217Z,61.90
2019-01-23T23:08:26.987Z,62.17
2019-01-23T23:10:56.007Z,60.07
2019-01-23T23:13:25.003Z,61.70
2019-01-23T23:15:54.019Z,61.97
2019-01-23T23:18:23.094Z,57.87
2019-01-23T23:20:52.124Z,60.10
2019-01-23T23:23:21.188Z,57.13
2019-01-23T23:25:50.209Z,53.47
2019-01-23T23:28:25.771Z,56.23
2019-01-23T23:30:49.886Z,52.37
2019-01-23T23:33:18.779Z,54.57
2019-01-23T23:35:47.793Z,53.73
2019-01-23T23:38:18.527Z,54.43
2019-01-23T23:40:47.827Z,54.57
2019-01-23T23:43:16.748Z,53.70
2019-01-23T23:45:45.744Z,51.13
2019-01-23T23:48:14.647Z,51.63
2019-01-23T23:50:43.803Z,50.53
2019-01-23T23:53:12.665Z,49.67
2019-01-23T23:55:41.694Z,50.30
2019-01-23T23:58:10.595Z,51.87
